sensor_id;sensor_type;location;lat;lon;timestamp;P1;durP1;ratioP1;P2;durP2;ratioP2
35564;SDS011;21668;44.784;10.336;2022-10-31T00:02:08;16.85;;;7.47;;
35564;SDS011;21668;44.784;10.336;2022-10-31T00:38:39;14.60;;;6.38;;
35564;SDS011;21668;44.784;10.336;2022-10-31T00:45:26;22.13;;;8.70;;
35564;SDS011;21668;44.784;10.336;2022-10-31T00:53:00;12.93;;;6.10;;
35564;SDS011;21668;44.784;10.336;2022-10-31T00:56:34;18.13;;;6.10;;
35564;SDS011;21668;44.784;10.336;2022-10-31T01:04:16;11.38;;;6.28;;
35564;SDS011;21668;44.784;10.336;2022-10-31T01:07:23;9.27;;;6.07;;
35564;SDS011;21668;44.784;10.336;2022-10-31T01:14:21;15.68;;;6.35;;
35564;SDS011;21668;44.784;10.336;2022-10-31T01:17:53;12.13;;;5.68;;
35564;SDS011;21668;44.784;10.336;2022-10-31T01:21:23;11.65;;;5.85;;
35564;SDS011;21668;44.784;10.336;2022-10-31T01:24:39;12.35;;;6.43;;
35564;SDS011;21668;44.784;10.336;2022-10-31T01:28:25;14.02;;;6.05;;
35564;SDS011;21668;44.784;10.336;2022-10-31T01:36:00;10.40;;;6.32;;
35564;SDS011;21668;44.784;10.336;2022-10-31T01:39:10;13.50;;;6.38;;
35564;SDS011;21668;44.784;10.336;2022-10-31T01:42:23;17.20;;;6.97;;
35564;SDS011;21668;44.784;10.336;2022-10-31T01:45:30;10.30;;;5.47;;
35564;SDS011;21668;44.784;10.336;2022-10-31T01:48:49;15.50;;;6.18;;
35564;SDS011;21668;44.784;10.336;2022-10-31T01:52:02;11.35;;;5.30;;
35564;SDS011;21668;44.784;10.336;2022-10-31T01:58:55;10.05;;;5.35;;
35564;SDS011;21668;44.784;10.336;2022-10-31T02:02:06;8.45;;;5.43;;
35564;SDS011;21668;44.784;10.336;2022-10-31T02:05:20;12.68;;;5.60;;
35564;SDS011;21668;44.784;10.336;2022-10-31T02:08:33;10.98;;;5.72;;
35564;SDS011;21668;44.784;10.336;2022-10-31T02:11:41;11.70;;;5.45;;
35564;SDS011;21668;44.784;10.336;2022-10-31T02:18:57;11.65;;;5.65;;
35564;SDS011;21668;44.784;10.336;2022-10-31T02:31:21;10.77;;;5.50;;
35564;SDS011;21668;44.784;10.336;2022-10-31T02:37:39;14.00;;;5.95;;
35564;SDS011;21668;44.784;10.336;2022-10-31T02:49:54;12.43;;;6.22;;
35564;SDS011;21668;44.784;10.336;2022-10-31T02:53:03;11.45;;;5.70;;
35564;SDS011;21668;44.784;10.336;2022-10-31T02:56:21;10.98;;;5.75;;
35564;SDS011;21668;44.784;10.336;2022-10-31T03:13:32;11.50;;;5.43;;
35564;SDS011;21668;44.784;10.336;2022-10-31T03:20:42;9.57;;;5.30;;
35564;SDS011;21668;44.784;10.336;2022-10-31T03:24:24;15.93;;;5.95;;
35564;SDS011;21668;44.784;10.336;2022-10-31T03:27:57;11.43;;;5.00;;
35564;SDS011;21668;44.784;10.336;2022-10-31T03:31:11;9.02;;;5.18;;
35564;SDS011;21668;44.784;10.336;2022-10-31T03:34:33;8.82;;;5.30;;
35564;SDS011;21668;44.784;10.336;2022-10-31T03:37:40;11.23;;;5.78;;
35564;SDS011;21668;44.784;10.336;2022-10-31T03:44:32;10.00;;;4.68;;
35564;SDS011;21668;44.784;10.336;2022-10-31T03:55:49;11.18;;;5.25;;
35564;SDS011;21668;44.784;10.336;2022-10-31T03:59:24;11.38;;;5.45;;
35564;SDS011;21668;44.784;10.336;2022-10-31T04:07:39;17.90;;;5.40;;
35564;SDS011;21668;44.784;10.336;2022-10-31T04:10:49;11.68;;;5.03;;
35564;SDS011;21668;44.784;10.336;2022-10-31T04:14:02;10.60;;;5.22;;
35564;SDS011;21668;44.784;10.336;2022-10-31T04:17:17;7.47;;;5.13;;
35564;SDS011;21668;44.784;10.336;2022-10-31T04:31:58;10.35;;;4.57;;
35564;SDS011;21668;44.784;10.336;2022-10-31T04:35:12;16.45;;;5.47;;
35564;SDS011;21668;44.784;10.336;2022-10-31T04:38:24;7.65;;;4.35;;
35564;SDS011;21668;44.784;10.336;2022-10-31T04:41:36;11.07;;;4.90;;
35564;SDS011;21668;44.784;10.336;2022-10-31T04:45:38;10.55;;;4.60;;
35564;SDS011;21668;44.784;10.336;2022-10-31T04:53:30;8.98;;;4.50;;
35564;SDS011;21668;44.784;10.336;2022-10-31T04:57:11;8.20;;;4.75;;
35564;SDS011;21668;44.784;10.336;2022-10-31T05:00:38;10.95;;;4.68;;
35564;SDS011;21668;44.784;10.336;2022-10-31T05:06:58;9.25;;;4.32;;
35564;SDS011;21668;44.784;10.336;2022-10-31T05:10:05;12.00;;;4.75;;
35564;SDS011;21668;44.784;10.336;2022-10-31T05:13:11;8.45;;;4.80;;
35564;SDS011;21668;44.784;10.336;2022-10-31T05:16:34;11.40;;;4.57;;
35564;SDS011;21668;44.784;10.336;2022-10-31T05:19:57;11.65;;;4.97;;
35564;SDS011;21668;44.784;10.336;2022-10-31T05:23:27;8.20;;;4.18;;
35564;SDS011;21668;44.784;10.336;2022-10-31T05:26:33;10.68;;;4.68;;
35564;SDS011;21668;44.784;10.336;2022-10-31T05:29:46;10.43;;;4.90;;
35564;SDS011;21668;44.784;10.336;2022-10-31T05:32:52;7.28;;;4.00;;
35564;SDS011;21668;44.784;10.336;2022-10-31T05:36:19;8.98;;;4.45;;
35564;SDS011;21668;44.784;10.336;2022-10-31T05:40:08;12.98;;;4.78;;
35564;SDS011;21668;44.784;10.336;2022-10-31T05:48:02;8.98;;;4.10;;
35564;SDS011;21668;44.784;10.336;2022-10-31T05:51:29;11.50;;;5.05;;
35564;SDS011;21668;44.784;10.336;2022-10-31T06:11:13;7.63;;;4.93;;
35564;SDS011;21668;44.784;10.336;2022-10-31T06:25:54;12.10;;;5.43;;
35564;SDS011;21668;44.784;10.336;2022-10-31T06:49:07;10.82;;;5.32;;
35564;SDS011;21668;44.784;10.336;2022-10-31T07:09:13;13.02;;;5.45;;
35564;SDS011;21668;44.784;10.336;2022-10-31T07:13:40;12.30;;;5.70;;
35564;SDS011;21668;44.784;10.336;2022-10-31T08:49:22;15.10;;;5.38;;
35564;SDS011;21668;44.784;10.336;2022-10-31T11:49:18;24.52;;;12.48;;
35564;SDS011;21668;44.784;10.336;2022-10-31T11:53:35;27.77;;;12.20;;
35564;SDS011;21668;44.784;10.336;2022-10-31T12:45:57;28.83;;;13.82;;
35564;SDS011;21668;44.784;10.336;2022-10-31T13:15:48;27.40;;;11.95;;
35564;SDS011;21668;44.784;10.336;2022-10-31T13:33:10;21.63;;;12.23;;
35564;SDS011;21668;44.784;10.336;2022-10-31T13:45:17;30.65;;;13.68;;
35564;SDS011;21668;44.784;10.336;2022-10-31T13:48:36;24.27;;;11.73;;
35564;SDS011;21668;44.784;10.336;2022-10-31T13:52:13;22.67;;;10.13;;
35564;SDS011;21668;44.784;10.336;2022-10-31T13:56:47;18.15;;;10.30;;
35564;SDS011;21668;44.784;10.336;2022-10-31T14:03:25;27.38;;;10.95;;
35564;SDS011;21668;44.784;10.336;2022-10-31T14:06:42;23.77;;;10.18;;
35564;SDS011;21668;44.784;10.336;2022-10-31T14:14:51;22.23;;;9.97;;
35564;SDS011;21668;44.784;10.336;2022-10-31T14:18:05;21.95;;;10.57;;
35564;SDS011;21668;44.784;10.336;2022-10-31T14:21:35;19.25;;;9.77;;
35564;SDS011;21668;44.784;10.336;2022-10-31T14:24:46;20.58;;;10.55;;
35564;SDS011;21668;44.784;10.336;2022-10-31T14:32:34;22.42;;;10.40;;
35564;SDS011;21668;44.784;10.336;2022-10-31T14:39:17;19.67;;;9.93;;
35564;SDS011;21668;44.784;10.336;2022-10-31T14:43:01;21.20;;;8.32;;
35564;SDS011;21668;44.784;10.336;2022-10-31T14:46:18;21.73;;;8.52;;
35564;SDS011;21668;44.784;10.336;2022-10-31T14:53:02;20.38;;;8.52;;
35564;SDS011;21668;44.784;10.336;2022-10-31T14:56:36;16.88;;;7.53;;
35564;SDS011;21668;44.784;10.336;2022-10-31T14:59:59;21.52;;;8.90;;
35564;SDS011;21668;44.784;10.336;2022-10-31T15:03:31;18.23;;;8.23;;
35564;SDS011;21668;44.784;10.336;2022-10-31T15:11:40;19.70;;;8.23;;
35564;SDS011;21668;44.784;10.336;2022-10-31T15:15:28;21.52;;;8.60;;
35564;SDS011;21668;44.784;10.336;2022-10-31T15:19:49;19.63;;;8.80;;
35564;SDS011;21668;44.784;10.336;2022-10-31T15:24:30;24.73;;;9.43;;
35564;SDS011;21668;44.784;10.336;2022-10-31T15:28:43;25.05;;;9.00;;
35564;SDS011;21668;44.784;10.336;2022-10-31T15:33:15;18.58;;;9.23;;
35564;SDS011;21668;44.784;10.336;2022-10-31T15:36:47;21.67;;;8.68;;
35564;SDS011;21668;44.784;10.336;2022-10-31T15:40:05;21.30;;;9.75;;
35564;SDS011;21668;44.784;10.336;2022-10-31T15:43:27;27.80;;;9.95;;
35564;SDS011;21668;44.784;10.336;2022-10-31T15:50:54;22.25;;;10.07;;
35564;SDS011;21668;44.784;10.336;2022-10-31T15:54:10;22.20;;;9.35;;
35564;SDS011;21668;44.784;10.336;2022-10-31T15:57:29;22.75;;;9.82;;
35564;SDS011;21668;44.784;10.336;2022-10-31T16:00:56;23.13;;;10.23;;
35564;SDS011;21668;44.784;10.336;2022-10-31T16:04:23;21.08;;;9.63;;
35564;SDS011;21668;44.784;10.336;2022-10-31T16:07:30;22.75;;;11.27;;
35564;SDS011;21668;44.784;10.336;2022-10-31T16:10:52;26.38;;;10.75;;
35564;SDS011;21668;44.784;10.336;2022-10-31T16:18:00;25.17;;;11.45;;
35564;SDS011;21668;44.784;10.336;2022-10-31T16:21:16;19.80;;;9.98;;
35564;SDS011;21668;44.784;10.336;2022-10-31T16:51:25;25.42;;;11.85;;
35564;SDS011;21668;44.784;10.336;2022-10-31T16:54:31;24.38;;;11.23;;
35564;SDS011;21668;44.784;10.336;2022-10-31T17:11:52;27.80;;;11.88;;
35564;SDS011;21668;44.784;10.336;2022-10-31T17:19:30;30.10;;;13.45;;
35564;SDS011;21668;44.784;10.336;2022-10-31T17:38:59;28.27;;;13.25;;
35564;SDS011;21668;44.784;10.336;2022-10-31T17:53:08;27.73;;;14.32;;
35564;SDS011;21668;44.784;10.336;2022-10-31T18:21:16;30.25;;;16.50;;
35564;SDS011;21668;44.784;10.336;2022-10-31T18:25:12;30.77;;;16.15;;
35564;SDS011;21668;44.784;10.336;2022-10-31T18:34:42;35.10;;;17.20;;
35564;SDS011;21668;44.784;10.336;2022-10-31T18:38:53;29.98;;;15.32;;
35564;SDS011;21668;44.784;10.336;2022-10-31T19:07:14;32.28;;;16.15;;
35564;SDS011;21668;44.784;10.336;2022-10-31T19:12:00;28.80;;;13.75;;
35564;SDS011;21668;44.784;10.336;2022-10-31T19:50:21;34.47;;;14.57;;
35564;SDS011;21668;44.784;10.336;2022-10-31T19:58:56;32.10;;;14.15;;
35564;SDS011;21668;44.784;10.336;2022-10-31T20:02:02;34.85;;;16.30;;
35564;SDS011;21668;44.784;10.336;2022-10-31T20:12:50;25.27;;;14.98;;
35564;SDS011;21668;44.784;10.336;2022-10-31T20:21:33;25.10;;;13.73;;
35564;SDS011;21668;44.784;10.336;2022-10-31T20:29:58;28.58;;;13.50;;
35564;SDS011;21668;44.784;10.336;2022-10-31T20:33:23;29.02;;;14.20;;
35564;SDS011;21668;44.784;10.336;2022-10-31T20:36:30;27.27;;;13.07;;
35564;SDS011;21668;44.784;10.336;2022-10-31T20:39:35;24.70;;;13.05;;
35564;SDS011;21668;44.784;10.336;2022-10-31T20:46:12;23.30;;;11.63;;
35564;SDS011;21668;44.784;10.336;2022-10-31T20:49:28;22.50;;;10.68;;
35564;SDS011;21668;44.784;10.336;2022-10-31T20:52:35;22.27;;;12.98;;
35564;SDS011;21668;44.784;10.336;2022-10-31T20:59:11;20.50;;;10.93;;
35564;SDS011;21668;44.784;10.336;2022-10-31T21:02:42;19.77;;;10.63;;
35564;SDS011;21668;44.784;10.336;2022-10-31T21:06:14;21.95;;;11.32;;
35564;SDS011;21668;44.784;10.336;2022-10-31T21:09:24;22.13;;;11.38;;
35564;SDS011;21668;44.784;10.336;2022-10-31T21:12:57;22.80;;;10.73;;
35564;SDS011;21668;44.784;10.336;2022-10-31T21:16:34;21.85;;;9.57;;
35564;SDS011;21668;44.784;10.336;2022-10-31T21:19:44;19.23;;;8.98;;
35564;SDS011;21668;44.784;10.336;2022-10-31T21:22:49;34.38;;;12.07;;
35564;SDS011;21668;44.784;10.336;2022-10-31T21:25:53;20.70;;;10.77;;
35564;SDS011;21668;44.784;10.336;2022-10-31T21:28:59;22.10;;;10.40;;
35564;SDS011;21668;44.784;10.336;2022-10-31T21:32:05;16.90;;;8.25;;
35564;SDS011;21668;44.784;10.336;2022-10-31T21:35:12;18.40;;;9.82;;
35564;SDS011;21668;44.784;10.336;2022-10-31T21:38:17;18.55;;;9.02;;
35564;SDS011;21668;44.784;10.336;2022-10-31T21:41:26;16.73;;;8.43;;
35564;SDS011;21668;44.784;10.336;2022-10-31T21:44:46;13.27;;;8.25;;
35564;SDS011;21668;44.784;10.336;2022-10-31T21:47:53;13.30;;;7.80;;
35564;SDS011;21668;44.784;10.336;2022-10-31T21:51:02;20.27;;;8.07;;
35564;SDS011;21668;44.784;10.336;2022-10-31T21:54:15;16.95;;;8.85;;
35564;SDS011;21668;44.784;10.336;2022-10-31T21:57:36;14.07;;;7.47;;
35564;SDS011;21668;44.784;10.336;2022-10-31T22:00:44;16.95;;;7.80;;
35564;SDS011;21668;44.784;10.336;2022-10-31T22:03:52;14.25;;;7.50;;
35564;SDS011;21668;44.784;10.336;2022-10-31T22:06:57;17.98;;;8.77;;
35564;SDS011;21668;44.784;10.336;2022-10-31T22:10:03;17.25;;;8.75;;
35564;SDS011;21668;44.784;10.336;2022-10-31T22:13:31;17.20;;;7.80;;
35564;SDS011;21668;44.784;10.336;2022-10-31T22:16:46;19.45;;;8.07;;
35564;SDS011;21668;44.784;10.336;2022-10-31T22:19:51;18.40;;;7.45;;
35564;SDS011;21668;44.784;10.336;2022-10-31T22:22:56;18.45;;;7.50;;
35564;SDS011;21668;44.784;10.336;2022-10-31T22:26:04;16.70;;;7.15;;
35564;SDS011;21668;44.784;10.336;2022-10-31T22:29:12;15.70;;;6.88;;
35564;SDS011;21668;44.784;10.336;2022-10-31T22:32:31;14.57;;;5.65;;
35564;SDS011;21668;44.784;10.336;2022-10-31T22:35:59;13.05;;;5.05;;
35564;SDS011;21668;44.784;10.336;2022-10-31T22:39:05;12.02;;;6.00;;
35564;SDS011;21668;44.784;10.336;2022-10-31T22:42:13;10.57;;;5.63;;
35564;SDS011;21668;44.784;10.336;2022-10-31T22:45:21;13.07;;;5.53;;
35564;SDS011;21668;44.784;10.336;2022-10-31T22:48:27;8.25;;;4.68;;
35564;SDS011;21668;44.784;10.336;2022-10-31T22:51:33;14.85;;;5.75;;
35564;SDS011;21668;44.784;10.336;2022-10-31T22:54:40;11.98;;;5.15;;
35564;SDS011;21668;44.784;10.336;2022-10-31T22:57:46;10.30;;;5.60;;
35564;SDS011;21668;44.784;10.336;2022-10-31T23:00:51;10.45;;;5.60;;
35564;SDS011;21668;44.784;10.336;2022-10-31T23:03:55;13.40;;;6.45;;
35564;SDS011;21668;44.784;10.336;2022-10-31T23:07:00;11.95;;;5.70;;
35564;SDS011;21668;44.784;10.336;2022-10-31T23:10:05;14.55;;;5.50;;
35564;SDS011;21668;44.784;10.336;2022-10-31T23:13:12;10.32;;;5.65;;
35564;SDS011;21668;44.784;10.336;2022-10-31T23:16:36;11.57;;;5.53;;
35564;SDS011;21668;44.784;10.336;2022-10-31T23:19:46;12.75;;;5.50;;
35564;SDS011;21668;44.784;10.336;2022-10-31T23:22:51;13.32;;;5.85;;
35564;SDS011;21668;44.784;10.336;2022-10-31T23:25:58;18.15;;;6.60;;
35564;SDS011;21668;44.784;10.336;2022-10-31T23:29:20;18.30;;;6.57;;
35564;SDS011;21668;44.784;10.336;2022-10-31T23:32:28;14.60;;;6.57;;
35564;SDS011;21668;44.784;10.336;2022-10-31T23:35:33;10.95;;;6.20;;
35564;SDS011;21668;44.784;10.336;2022-10-31T23:38:38;10.93;;;6.00;;
35564;SDS011;21668;44.784;10.336;2022-10-31T23:41:53;11.65;;;5.97;;
35564;SDS011;21668;44.784;10.336;2022-10-31T23:45:01;12.00;;;5.90;;
35564;SDS011;21668;44.784;10.336;2022-10-31T23:48:08;9.02;;;4.93;;
35564;SDS011;21668;44.784;10.336;2022-10-31T23:51:23;13.38;;;6.65;;
35564;SDS011;21668;44.784;10.336;2022-10-31T23:54:36;8.38;;;4.60;;
35564;SDS011;21668;44.784;10.336;2022-10-31T23:57:40;10.77;;;5.35;;
